sensor_id;sensor_type;location;lat;lon;timestamp;P1;durP1;ratioP1;P2;durP2;ratioP2
75340;SDS011;64931;47.562;18.920;2023-05-10T00:00:21;4.60;;;2.50;;
75340;SDS011;64931;47.562;18.920;2023-05-10T00:02:48;6.20;;;3.50;;
75340;SDS011;64931;47.562;18.920;2023-05-10T00:05:14;5.20;;;2.70;;
75340;SDS011;64931;47.562;18.920;2023-05-10T00:07:39;4.90;;;2.70;;
75340;SDS011;64931;47.562;18.920;2023-05-10T00:10:05;5.40;;;2.90;;
75340;SDS011;64931;47.562;18.920;2023-05-10T00:12:31;3.80;;;2.10;;
75340;SDS011;64931;47.562;18.920;2023-05-10T00:14:56;5.20;;;2.50;;
75340;SDS011;64931;47.562;18.920;2023-05-10T00:17:22;5.30;;;2.90;;
75340;SDS011;64931;47.562;18.920;2023-05-10T00:19:47;5.90;;;2.90;;
75340;SDS011;64931;47.562;18.920;2023-05-10T00:22:13;6.30;;;2.50;;
75340;SDS011;64931;47.562;18.920;2023-05-10T00:24:38;6.10;;;3.30;;
75340;SDS011;64931;47.562;18.920;2023-05-10T00:27:04;5.00;;;2.80;;
75340;SDS011;64931;47.562;18.920;2023-05-10T00:29:29;5.00;;;3.20;;
75340;SDS011;64931;47.562;18.920;2023-05-10T00:31:54;5.20;;;3.10;;
75340;SDS011;64931;47.562;18.920;2023-05-10T00:34:20;5.70;;;3.00;;
75340;SDS011;64931;47.562;18.920;2023-05-10T00:36:45;7.50;;;3.70;;
75340;SDS011;64931;47.562;18.920;2023-05-10T00:39:11;6.40;;;3.70;;
75340;SDS011;64931;47.562;18.920;2023-05-10T00:41:37;5.30;;;3.00;;
75340;SDS011;64931;47.562;18.920;2023-05-10T00:44:02;6.70;;;3.90;;
75340;SDS011;64931;47.562;18.920;2023-05-10T00:46:29;6.20;;;3.60;;
75340;SDS011;64931;47.562;18.920;2023-05-10T00:48:55;5.90;;;3.80;;
75340;SDS011;64931;47.562;18.920;2023-05-10T00:51:21;5.90;;;3.90;;
75340;SDS011;64931;47.562;18.920;2023-05-10T00:53:46;7.00;;;3.40;;
75340;SDS011;64931;47.562;18.920;2023-05-10T00:56:12;6.00;;;2.90;;
75340;SDS011;64931;47.562;18.920;2023-05-10T00:58:38;5.30;;;3.30;;
75340;SDS011;64931;47.562;18.920;2023-05-10T01:01:04;5.40;;;3.40;;
75340;SDS011;64931;47.562;18.920;2023-05-10T01:03:31;6.90;;;3.30;;
75340;SDS011;64931;47.562;18.920;2023-05-10T01:05:57;9.00;;;4.00;;
75340;SDS011;64931;47.562;18.920;2023-05-10T01:08:22;5.00;;;3.60;;
75340;SDS011;64931;47.562;18.920;2023-05-10T01:10:48;6.50;;;3.50;;
75340;SDS011;64931;47.562;18.920;2023-05-10T01:15:59;7.20;;;4.10;;
75340;SDS011;64931;47.562;18.920;2023-05-10T01:18:26;5.80;;;3.80;;
75340;SDS011;64931;47.562;18.920;2023-05-10T01:20:56;5.50;;;3.20;;
75340;SDS011;64931;47.562;18.920;2023-05-10T01:23:45;5.20;;;2.90;;
75340;SDS011;64931;47.562;18.920;2023-05-10T01:26:18;5.50;;;3.80;;
75340;SDS011;64931;47.562;18.920;2023-05-10T01:28:58;8.40;;;4.10;;
75340;SDS011;64931;47.562;18.920;2023-05-10T01:34:32;7.00;;;4.00;;
75340;SDS011;64931;47.562;18.920;2023-05-10T01:37:08;6.80;;;3.80;;
75340;SDS011;64931;47.562;18.920;2023-05-10T01:42:20;8.10;;;4.90;;
75340;SDS011;64931;47.562;18.920;2023-05-10T01:47:31;7.00;;;4.40;;
75340;SDS011;64931;47.562;18.920;2023-05-10T01:50:02;7.10;;;5.10;;
75340;SDS011;64931;47.562;18.920;2023-05-10T01:55:02;6.90;;;4.10;;
75340;SDS011;64931;47.562;18.920;2023-05-10T01:57:34;6.80;;;5.00;;
75340;SDS011;64931;47.562;18.920;2023-05-10T02:00:02;6.40;;;4.50;;
75340;SDS011;64931;47.562;18.920;2023-05-10T02:02:29;8.50;;;4.90;;
75340;SDS011;64931;47.562;18.920;2023-05-10T02:04:57;7.40;;;5.20;;
75340;SDS011;64931;47.562;18.920;2023-05-10T02:07:23;8.00;;;5.30;;
75340;SDS011;64931;47.562;18.920;2023-05-10T02:09:49;7.80;;;5.40;;
75340;SDS011;64931;47.562;18.920;2023-05-10T02:12:15;7.80;;;5.00;;
75340;SDS011;64931;47.562;18.920;2023-05-10T02:14:41;8.80;;;5.40;;
75340;SDS011;64931;47.562;18.920;2023-05-10T02:17:07;10.50;;;5.40;;
75340;SDS011;64931;47.562;18.920;2023-05-10T02:19:34;8.20;;;5.70;;
75340;SDS011;64931;47.562;18.920;2023-05-10T02:22:02;7.60;;;5.10;;
75340;SDS011;64931;47.562;18.920;2023-05-10T02:24:28;8.20;;;5.20;;
75340;SDS011;64931;47.562;18.920;2023-05-10T02:26:54;7.30;;;5.10;;
75340;SDS011;64931;47.562;18.920;2023-05-10T02:29:23;7.00;;;4.90;;
75340;SDS011;64931;47.562;18.920;2023-05-10T02:31:51;8.50;;;4.80;;
75340;SDS011;64931;47.562;18.920;2023-05-10T02:34:18;9.90;;;4.90;;
75340;SDS011;64931;47.562;18.920;2023-05-10T02:36:45;8.70;;;5.30;;
75340;SDS011;64931;47.562;18.920;2023-05-10T02:39:11;7.90;;;5.40;;
75340;SDS011;64931;47.562;18.920;2023-05-10T02:41:39;7.20;;;4.30;;
75340;SDS011;64931;47.562;18.920;2023-05-10T02:44:06;6.90;;;4.80;;
75340;SDS011;64931;47.562;18.920;2023-05-10T02:46:33;7.00;;;5.00;;
75340;SDS011;64931;47.562;18.920;2023-05-10T02:48:58;7.60;;;4.40;;
75340;SDS011;64931;47.562;18.920;2023-05-10T02:51:24;7.90;;;5.30;;
75340;SDS011;64931;47.562;18.920;2023-05-10T02:53:50;7.80;;;5.10;;
75340;SDS011;64931;47.562;18.920;2023-05-10T02:56:25;7.30;;;4.50;;
75340;SDS011;64931;47.562;18.920;2023-05-10T02:58:54;7.50;;;4.80;;
75340;SDS011;64931;47.562;18.920;2023-05-10T03:01:20;7.70;;;4.40;;
75340;SDS011;64931;47.562;18.920;2023-05-10T03:03:45;7.30;;;4.20;;
75340;SDS011;64931;47.562;18.920;2023-05-10T03:06:11;8.70;;;4.70;;
75340;SDS011;64931;47.562;18.920;2023-05-10T03:08:36;8.20;;;4.80;;
75340;SDS011;64931;47.562;18.920;2023-05-10T03:13:36;7.60;;;4.70;;
75340;SDS011;64931;47.562;18.920;2023-05-10T03:16:10;8.50;;;4.90;;
75340;SDS011;64931;47.562;18.920;2023-05-10T03:18:46;8.00;;;4.80;;
75340;SDS011;64931;47.562;18.920;2023-05-10T03:21:16;6.80;;;4.70;;
75340;SDS011;64931;47.562;18.920;2023-05-10T03:23:43;6.90;;;4.10;;
75340;SDS011;64931;47.562;18.920;2023-05-10T03:26:17;7.10;;;5.00;;
75340;SDS011;64931;47.562;18.920;2023-05-10T03:28:45;7.00;;;5.10;;
75340;SDS011;64931;47.562;18.920;2023-05-10T03:31:13;7.50;;;4.80;;
75340;SDS011;64931;47.562;18.920;2023-05-10T03:33:48;8.90;;;4.80;;
75340;SDS011;64931;47.562;18.920;2023-05-10T03:36:14;7.40;;;4.30;;
75340;SDS011;64931;47.562;18.920;2023-05-10T03:38:39;7.00;;;4.20;;
75340;SDS011;64931;47.562;18.920;2023-05-10T03:41:05;6.20;;;4.40;;
75340;SDS011;64931;47.562;18.920;2023-05-10T03:43:30;7.50;;;3.80;;
75340;SDS011;64931;47.562;18.920;2023-05-10T03:45:55;6.60;;;4.50;;
75340;SDS011;64931;47.562;18.920;2023-05-10T03:48:21;8.10;;;4.80;;
75340;SDS011;64931;47.562;18.920;2023-05-10T03:50:46;6.70;;;4.50;;
75340;SDS011;64931;47.562;18.920;2023-05-10T03:53:12;6.80;;;4.40;;
75340;SDS011;64931;47.562;18.920;2023-05-10T03:55:37;6.90;;;4.80;;
75340;SDS011;64931;47.562;18.920;2023-05-10T03:58:02;7.00;;;4.70;;
75340;SDS011;64931;47.562;18.920;2023-05-10T04:00:28;8.10;;;4.50;;
75340;SDS011;64931;47.562;18.920;2023-05-10T04:02:53;8.10;;;4.20;;
75340;SDS011;64931;47.562;18.920;2023-05-10T04:05:19;6.50;;;4.60;;
75340;SDS011;64931;47.562;18.920;2023-05-10T04:07:44;5.40;;;3.90;;
75340;SDS011;64931;47.562;18.920;2023-05-10T04:10:10;8.30;;;4.50;;
75340;SDS011;64931;47.562;18.920;2023-05-10T04:12:36;6.20;;;4.00;;
75340;SDS011;64931;47.562;18.920;2023-05-10T04:15:01;6.60;;;4.60;;
75340;SDS011;64931;47.562;18.920;2023-05-10T04:17:27;7.00;;;4.90;;
75340;SDS011;64931;47.562;18.920;2023-05-10T04:19:53;8.40;;;4.10;;
75340;SDS011;64931;47.562;18.920;2023-05-10T04:22:19;8.40;;;5.00;;
75340;SDS011;64931;47.562;18.920;2023-05-10T04:24:45;6.50;;;4.60;;
75340;SDS011;64931;47.562;18.920;2023-05-10T04:27:11;7.00;;;4.20;;
75340;SDS011;64931;47.562;18.920;2023-05-10T04:29:36;7.40;;;4.60;;
75340;SDS011;64931;47.562;18.920;2023-05-10T04:32:02;6.40;;;3.80;;
75340;SDS011;64931;47.562;18.920;2023-05-10T04:34:28;7.50;;;4.00;;
75340;SDS011;64931;47.562;18.920;2023-05-10T04:36:54;6.50;;;4.60;;
75340;SDS011;64931;47.562;18.920;2023-05-10T04:39:20;6.40;;;4.10;;
75340;SDS011;64931;47.562;18.920;2023-05-10T04:41:45;6.80;;;4.20;;
75340;SDS011;64931;47.562;18.920;2023-05-10T04:44:10;6.80;;;4.60;;
75340;SDS011;64931;47.562;18.920;2023-05-10T04:46:36;5.50;;;3.70;;
75340;SDS011;64931;47.562;18.920;2023-05-10T04:49:01;5.50;;;3.80;;
75340;SDS011;64931;47.562;18.920;2023-05-10T04:51:27;7.70;;;4.70;;
75340;SDS011;64931;47.562;18.920;2023-05-10T04:53:52;6.90;;;5.20;;
75340;SDS011;64931;47.562;18.920;2023-05-10T04:56:17;9.10;;;5.40;;
75340;SDS011;64931;47.562;18.920;2023-05-10T04:58:43;7.30;;;4.80;;
75340;SDS011;64931;47.562;18.920;2023-05-10T05:01:08;7.30;;;5.00;;
75340;SDS011;64931;47.562;18.920;2023-05-10T05:03:35;8.10;;;5.30;;
75340;SDS011;64931;47.562;18.920;2023-05-10T05:06:01;7.40;;;5.10;;
75340;SDS011;64931;47.562;18.920;2023-05-10T05:08:27;8.60;;;4.50;;
75340;SDS011;64931;47.562;18.920;2023-05-10T05:10:52;6.60;;;4.90;;
75340;SDS011;64931;47.562;18.920;2023-05-10T05:13:18;7.00;;;4.80;;
75340;SDS011;64931;47.562;18.920;2023-05-10T05:15:44;8.60;;;5.60;;
75340;SDS011;64931;47.562;18.920;2023-05-10T05:18:09;7.80;;;5.20;;
75340;SDS011;64931;47.562;18.920;2023-05-10T05:20:34;6.70;;;4.60;;
75340;SDS011;64931;47.562;18.920;2023-05-10T05:23:00;7.20;;;5.10;;
75340;SDS011;64931;47.562;18.920;2023-05-10T05:25:26;6.90;;;4.80;;
75340;SDS011;64931;47.562;18.920;2023-05-10T05:27:51;7.30;;;4.40;;
75340;SDS011;64931;47.562;18.920;2023-05-10T05:30:16;8.10;;;4.80;;
75340;SDS011;64931;47.562;18.920;2023-05-10T05:32:42;7.50;;;4.50;;
75340;SDS011;64931;47.562;18.920;2023-05-10T05:35:07;8.60;;;5.40;;
75340;SDS011;64931;47.562;18.920;2023-05-10T05:37:33;8.30;;;4.90;;
75340;SDS011;64931;47.562;18.920;2023-05-10T05:39:58;7.10;;;4.50;;
75340;SDS011;64931;47.562;18.920;2023-05-10T05:42:26;7.00;;;4.80;;
75340;SDS011;64931;47.562;18.920;2023-05-10T05:44:51;8.60;;;4.70;;
75340;SDS011;64931;47.562;18.920;2023-05-10T05:47:16;8.70;;;4.40;;
75340;SDS011;64931;47.562;18.920;2023-05-10T05:49:42;8.50;;;4.80;;
75340;SDS011;64931;47.562;18.920;2023-05-10T05:54:36;6.40;;;4.70;;
75340;SDS011;64931;47.562;18.920;2023-05-10T05:57:01;8.70;;;5.20;;
75340;SDS011;64931;47.562;18.920;2023-05-10T05:59:26;6.60;;;4.50;;
75340;SDS011;64931;47.562;18.920;2023-05-10T06:01:52;11.10;;;5.60;;
75340;SDS011;64931;47.562;18.920;2023-05-10T06:04:18;7.50;;;5.20;;
75340;SDS011;64931;47.562;18.920;2023-05-10T06:06:43;8.30;;;5.80;;
75340;SDS011;64931;47.562;18.920;2023-05-10T06:09:09;6.90;;;5.50;;
75340;SDS011;64931;47.562;18.920;2023-05-10T06:11:35;8.80;;;5.10;;
75340;SDS011;64931;47.562;18.920;2023-05-10T06:14:01;7.70;;;4.70;;
75340;SDS011;64931;47.562;18.920;2023-05-10T06:16:26;8.00;;;5.40;;
75340;SDS011;64931;47.562;18.920;2023-05-10T06:18:52;8.00;;;5.10;;
75340;SDS011;64931;47.562;18.920;2023-05-10T06:21:17;7.80;;;4.60;;
75340;SDS011;64931;47.562;18.920;2023-05-10T06:23:43;7.30;;;5.30;;
75340;SDS011;64931;47.562;18.920;2023-05-10T06:26:09;10.30;;;6.00;;
75340;SDS011;64931;47.562;18.920;2023-05-10T06:28:34;7.90;;;4.80;;
75340;SDS011;64931;47.562;18.920;2023-05-10T06:31:00;10.20;;;4.90;;
75340;SDS011;64931;47.562;18.920;2023-05-10T06:33:25;6.70;;;4.50;;
75340;SDS011;64931;47.562;18.920;2023-05-10T06:35:51;6.70;;;4.20;;
75340;SDS011;64931;47.562;18.920;2023-05-10T06:38:16;9.00;;;4.80;;
75340;SDS011;64931;47.562;18.920;2023-05-10T06:40:42;7.70;;;5.10;;
75340;SDS011;64931;47.562;18.920;2023-05-10T06:43:07;6.90;;;4.80;;
75340;SDS011;64931;47.562;18.920;2023-05-10T06:45:33;8.70;;;4.90;;
75340;SDS011;64931;47.562;18.920;2023-05-10T06:47:58;8.90;;;4.90;;
75340;SDS011;64931;47.562;18.920;2023-05-10T06:50:24;9.40;;;5.30;;
75340;SDS011;64931;47.562;18.920;2023-05-10T06:52:50;7.60;;;4.40;;
75340;SDS011;64931;47.562;18.920;2023-05-10T06:55:15;6.00;;;4.60;;
75340;SDS011;64931;47.562;18.920;2023-05-10T06:57:41;7.50;;;4.70;;
75340;SDS011;64931;47.562;18.920;2023-05-10T07:00:06;7.10;;;4.90;;
75340;SDS011;64931;47.562;18.920;2023-05-10T07:02:32;7.80;;;5.00;;
75340;SDS011;64931;47.562;18.920;2023-05-10T07:04:58;6.70;;;4.90;;
75340;SDS011;64931;47.562;18.920;2023-05-10T07:07:23;6.50;;;4.10;;
75340;SDS011;64931;47.562;18.920;2023-05-10T07:09:49;7.20;;;4.30;;
75340;SDS011;64931;47.562;18.920;2023-05-10T07:12:17;6.90;;;5.00;;
75340;SDS011;64931;47.562;18.920;2023-05-10T07:14:42;10.60;;;4.60;;
75340;SDS011;64931;47.562;18.920;2023-05-10T07:17:08;7.20;;;4.60;;
75340;SDS011;64931;47.562;18.920;2023-05-10T07:19:33;6.70;;;4.60;;
75340;SDS011;64931;47.562;18.920;2023-05-10T07:21:59;6.70;;;4.30;;
75340;SDS011;64931;47.562;18.920;2023-05-10T07:24:25;7.00;;;4.60;;
75340;SDS011;64931;47.562;18.920;2023-05-10T07:26:50;8.90;;;4.80;;
75340;SDS011;64931;47.562;18.920;2023-05-10T07:29:16;8.20;;;5.00;;
75340;SDS011;64931;47.562;18.920;2023-05-10T07:31:41;8.10;;;4.30;;
75340;SDS011;64931;47.562;18.920;2023-05-10T07:34:08;8.20;;;4.90;;
75340;SDS011;64931;47.562;18.920;2023-05-10T07:36:33;7.40;;;5.20;;
75340;SDS011;64931;47.562;18.920;2023-05-10T07:38:59;9.30;;;5.50;;
75340;SDS011;64931;47.562;18.920;2023-05-10T07:41:25;7.00;;;5.10;;
75340;SDS011;64931;47.562;18.920;2023-05-10T07:43:51;7.10;;;4.60;;
75340;SDS011;64931;47.562;18.920;2023-05-10T07:46:16;7.60;;;4.60;;
75340;SDS011;64931;47.562;18.920;2023-05-10T07:48:41;9.10;;;5.60;;
75340;SDS011;64931;47.562;18.920;2023-05-10T07:51:07;8.90;;;5.10;;
75340;SDS011;64931;47.562;18.920;2023-05-10T07:53:34;5.90;;;3.70;;
75340;SDS011;64931;47.562;18.920;2023-05-10T07:56:19;7.80;;;5.30;;
75340;SDS011;64931;47.562;18.920;2023-05-10T07:58:45;8.10;;;4.70;;
75340;SDS011;64931;47.562;18.920;2023-05-10T08:01:10;7.90;;;5.20;;
75340;SDS011;64931;47.562;18.920;2023-05-10T08:03:35;6.50;;;5.30;;
75340;SDS011;64931;47.562;18.920;2023-05-10T08:06:01;7.00;;;5.40;;
75340;SDS011;64931;47.562;18.920;2023-05-10T08:08:26;7.10;;;4.50;;
75340;SDS011;64931;47.562;18.920;2023-05-10T08:10:51;7.50;;;5.40;;
75340;SDS011;64931;47.562;18.920;2023-05-10T08:13:17;40.10;;;7.00;;
75340;SDS011;64931;47.562;18.920;2023-05-10T08:15:42;17.90;;;5.70;;
75340;SDS011;64931;47.562;18.920;2023-05-10T08:18:07;10.40;;;5.00;;
75340;SDS011;64931;47.562;18.920;2023-05-10T08:20:33;16.10;;;5.00;;
75340;SDS011;64931;47.562;18.920;2023-05-10T08:22:58;10.50;;;4.60;;
75340;SDS011;64931;47.562;18.920;2023-05-10T08:25:24;11.30;;;5.20;;
75340;SDS011;64931;47.562;18.920;2023-05-10T08:27:49;15.50;;;5.90;;
75340;SDS011;64931;47.562;18.920;2023-05-10T08:30:15;6.70;;;4.30;;
75340;SDS011;64931;47.562;18.920;2023-05-10T08:32:41;11.80;;;5.00;;
75340;SDS011;64931;47.562;18.920;2023-05-10T08:35:06;11.00;;;5.30;;
75340;SDS011;64931;47.562;18.920;2023-05-10T08:37:32;13.50;;;5.10;;
75340;SDS011;64931;47.562;18.920;2023-05-10T08:39:58;9.30;;;4.30;;
75340;SDS011;64931;47.562;18.920;2023-05-10T08:42:23;18.60;;;5.30;;
75340;SDS011;64931;47.562;18.920;2023-05-10T08:44:51;8.30;;;4.10;;
75340;SDS011;64931;47.562;18.920;2023-05-10T08:47:18;6.60;;;4.40;;
75340;SDS011;64931;47.562;18.920;2023-05-10T08:49:44;15.40;;;4.30;;
75340;SDS011;64931;47.562;18.920;2023-05-10T08:52:13;7.80;;;4.20;;
75340;SDS011;64931;47.562;18.920;2023-05-10T08:54:40;9.40;;;4.40;;
75340;SDS011;64931;47.562;18.920;2023-05-10T08:57:06;8.30;;;3.70;;
75340;SDS011;64931;47.562;18.920;2023-05-10T08:59:31;5.10;;;3.30;;
75340;SDS011;64931;47.562;18.920;2023-05-10T09:01:58;7.10;;;3.90;;
75340;SDS011;64931;47.562;18.920;2023-05-10T09:04:24;5.30;;;3.80;;
75340;SDS011;64931;47.562;18.920;2023-05-10T09:06:50;6.90;;;4.30;;
75340;SDS011;64931;47.562;18.920;2023-05-10T09:09:16;5.60;;;3.70;;
75340;SDS011;64931;47.562;18.920;2023-05-10T09:11:42;16.80;;;4.80;;
75340;SDS011;64931;47.562;18.920;2023-05-10T09:14:09;13.90;;;5.00;;
75340;SDS011;64931;47.562;18.920;2023-05-10T09:16:35;8.90;;;4.20;;
75340;SDS011;64931;47.562;18.920;2023-05-10T09:19:00;10.30;;;4.90;;
75340;SDS011;64931;47.562;18.920;2023-05-10T09:21:25;6.30;;;4.20;;
75340;SDS011;64931;47.562;18.920;2023-05-10T09:23:51;10.60;;;4.60;;
75340;SDS011;64931;47.562;18.920;2023-05-10T09:26:22;16.60;;;4.40;;
75340;SDS011;64931;47.562;18.920;2023-05-10T09:31:16;5.30;;;3.90;;
75340;SDS011;64931;47.562;18.920;2023-05-10T09:33:45;9.60;;;3.80;;
75340;SDS011;64931;47.562;18.920;2023-05-10T09:36:12;7.40;;;4.00;;
75340;SDS011;64931;47.562;18.920;2023-05-10T09:38:50;10.10;;;3.70;;
75340;SDS011;64931;47.562;18.920;2023-05-10T09:41:23;5.60;;;3.70;;
75340;SDS011;64931;47.562;18.920;2023-05-10T09:43:50;8.30;;;3.40;;
75340;SDS011;64931;47.562;18.920;2023-05-10T09:46:20;6.40;;;3.60;;
75340;SDS011;64931;47.562;18.920;2023-05-10T09:48:47;6.60;;;3.50;;
75340;SDS011;64931;47.562;18.920;2023-05-10T09:51:22;4.80;;;3.20;;
75340;SDS011;64931;47.562;18.920;2023-05-10T09:54:08;6.10;;;3.70;;
75340;SDS011;64931;47.562;18.920;2023-05-10T09:56:35;5.20;;;3.50;;
75340;SDS011;64931;47.562;18.920;2023-05-10T09:59:04;7.40;;;4.30;;
75340;SDS011;64931;47.562;18.920;2023-05-10T10:01:30;6.40;;;3.60;;
75340;SDS011;64931;47.562;18.920;2023-05-10T10:03:56;5.30;;;3.00;;
75340;SDS011;64931;47.562;18.920;2023-05-10T10:06:23;5.40;;;3.60;;
75340;SDS011;64931;47.562;18.920;2023-05-10T10:08:49;5.40;;;3.90;;
75340;SDS011;64931;47.562;18.920;2023-05-10T10:11:15;5.20;;;3.80;;
75340;SDS011;64931;47.562;18.920;2023-05-10T10:13:41;9.50;;;4.10;;
75340;SDS011;64931;47.562;18.920;2023-05-10T10:16:07;5.60;;;4.00;;
75340;SDS011;64931;47.562;18.920;2023-05-10T10:18:33;7.80;;;3.40;;
75340;SDS011;64931;47.562;18.920;2023-05-10T10:20:59;6.80;;;3.50;;
75340;SDS011;64931;47.562;18.920;2023-05-10T10:23:24;4.90;;;3.50;;
75340;SDS011;64931;47.562;18.920;2023-05-10T10:25:50;6.50;;;3.50;;
75340;SDS011;64931;47.562;18.920;2023-05-10T10:31:15;5.20;;;3.50;;
75340;SDS011;64931;47.562;18.920;2023-05-10T10:36:47;4.50;;;3.00;;
75340;SDS011;64931;47.562;18.920;2023-05-10T10:39:13;5.40;;;3.60;;
75340;SDS011;64931;47.562;18.920;2023-05-10T10:41:40;4.50;;;3.00;;
75340;SDS011;64931;47.562;18.920;2023-05-10T10:46:59;5.40;;;3.60;;
75340;SDS011;64931;47.562;18.920;2023-05-10T10:49:26;4.90;;;3.70;;
75340;SDS011;64931;47.562;18.920;2023-05-10T10:54:58;25.00;;;4.80;;
75340;SDS011;64931;47.562;18.920;2023-05-10T10:57:46;5.40;;;2.90;;
75340;SDS011;64931;47.562;18.920;2023-05-10T11:02:50;11.50;;;3.40;;
75340;SDS011;64931;47.562;18.920;2023-05-10T11:13:27;4.80;;;2.60;;
75340;SDS011;64931;47.562;18.920;2023-05-10T11:18:40;5.60;;;2.50;;
75340;SDS011;64931;47.562;18.920;2023-05-10T11:21:07;8.50;;;3.00;;
75340;SDS011;64931;47.562;18.920;2023-05-10T11:23:51;4.10;;;2.80;;
75340;SDS011;64931;47.562;18.920;2023-05-10T11:26:21;3.90;;;2.30;;
75340;SDS011;64931;47.562;18.920;2023-05-10T11:28:50;5.80;;;2.70;;
75340;SDS011;64931;47.562;18.920;2023-05-10T11:31:18;9.70;;;2.80;;
75340;SDS011;64931;47.562;18.920;2023-05-10T11:33:44;5.40;;;3.00;;
75340;SDS011;64931;47.562;18.920;2023-05-10T11:36:14;5.00;;;2.50;;
75340;SDS011;64931;47.562;18.920;2023-05-10T11:38:40;3.60;;;2.20;;
75340;SDS011;64931;47.562;18.920;2023-05-10T11:41:07;3.90;;;2.30;;
75340;SDS011;64931;47.562;18.920;2023-05-10T11:43:34;3.50;;;2.20;;
75340;SDS011;64931;47.562;18.920;2023-05-10T11:46:00;5.20;;;2.40;;
75340;SDS011;64931;47.562;18.920;2023-05-10T11:48:25;4.60;;;2.40;;
75340;SDS011;64931;47.562;18.920;2023-05-10T11:50:51;5.50;;;2.40;;
75340;SDS011;64931;47.562;18.920;2023-05-10T11:53:17;7.20;;;2.20;;
75340;SDS011;64931;47.562;18.920;2023-05-10T11:55:45;23.10;;;4.40;;
75340;SDS011;64931;47.562;18.920;2023-05-10T11:58:10;5.70;;;2.30;;
75340;SDS011;64931;47.562;18.920;2023-05-10T12:00:36;3.80;;;2.40;;
75340;SDS011;64931;47.562;18.920;2023-05-10T12:03:02;4.30;;;2.30;;
75340;SDS011;64931;47.562;18.920;2023-05-10T12:05:28;3.60;;;1.90;;
75340;SDS011;64931;47.562;18.920;2023-05-10T12:08:20;6.00;;;2.40;;
75340;SDS011;64931;47.562;18.920;2023-05-10T12:10:45;4.10;;;2.20;;
75340;SDS011;64931;47.562;18.920;2023-05-10T12:13:14;3.50;;;1.90;;
75340;SDS011;64931;47.562;18.920;2023-05-10T12:15:40;3.70;;;2.20;;
75340;SDS011;64931;47.562;18.920;2023-05-10T12:18:10;5.70;;;2.30;;
75340;SDS011;64931;47.562;18.920;2023-05-10T12:20:36;5.30;;;2.60;;
75340;SDS011;64931;47.562;18.920;2023-05-10T12:23:02;3.70;;;2.10;;
75340;SDS011;64931;47.562;18.920;2023-05-10T12:25:29;3.80;;;2.20;;
75340;SDS011;64931;47.562;18.920;2023-05-10T12:27:57;8.00;;;2.50;;
75340;SDS011;64931;47.562;18.920;2023-05-10T12:30:26;11.00;;;2.60;;
75340;SDS011;64931;47.562;18.920;2023-05-10T12:32:53;4.90;;;2.20;;
75340;SDS011;64931;47.562;18.920;2023-05-10T12:35:20;3.50;;;2.20;;
75340;SDS011;64931;47.562;18.920;2023-05-10T12:37:47;15.10;;;3.20;;
75340;SDS011;64931;47.562;18.920;2023-05-10T12:40:13;5.00;;;2.40;;
75340;SDS011;64931;47.562;18.920;2023-05-10T12:42:39;7.10;;;2.40;;
75340;SDS011;64931;47.562;18.920;2023-05-10T12:45:05;10.10;;;2.60;;
75340;SDS011;64931;47.562;18.920;2023-05-10T12:47:45;8.10;;;2.50;;
75340;SDS011;64931;47.562;18.920;2023-05-10T12:50:10;6.40;;;2.30;;
75340;SDS011;64931;47.562;18.920;2023-05-10T12:52:37;22.60;;;3.80;;
75340;SDS011;64931;47.562;18.920;2023-05-10T12:55:02;10.90;;;2.70;;
75340;SDS011;64931;47.562;18.920;2023-05-10T12:57:28;4.30;;;2.00;;
75340;SDS011;64931;47.562;18.920;2023-05-10T12:59:54;6.70;;;1.90;;
75340;SDS011;64931;47.562;18.920;2023-05-10T13:02:20;7.70;;;2.50;;
75340;SDS011;64931;47.562;18.920;2023-05-10T13:04:46;11.00;;;2.20;;
75340;SDS011;64931;47.562;18.920;2023-05-10T13:07:12;8.80;;;2.40;;
75340;SDS011;64931;47.562;18.920;2023-05-10T13:09:37;6.10;;;2.30;;
75340;SDS011;64931;47.562;18.920;2023-05-10T13:12:03;6.70;;;2.20;;
75340;SDS011;64931;47.562;18.920;2023-05-10T13:14:28;6.50;;;2.10;;
75340;SDS011;64931;47.562;18.920;2023-05-10T13:16:54;6.00;;;2.20;;
75340;SDS011;64931;47.562;18.920;2023-05-10T13:19:20;13.00;;;2.80;;
75340;SDS011;64931;47.562;18.920;2023-05-10T13:21:46;7.50;;;1.80;;
75340;SDS011;64931;47.562;18.920;2023-05-10T13:24:11;4.60;;;2.00;;
75340;SDS011;64931;47.562;18.920;2023-05-10T13:26:41;3.50;;;1.90;;
75340;SDS011;64931;47.562;18.920;2023-05-10T13:29:07;11.10;;;3.10;;
75340;SDS011;64931;47.562;18.920;2023-05-10T13:31:33;29.60;;;4.90;;
75340;SDS011;64931;47.562;18.920;2023-05-10T13:33:59;22.40;;;3.70;;
75340;SDS011;64931;47.562;18.920;2023-05-10T13:36:24;12.00;;;2.30;;
75340;SDS011;64931;47.562;18.920;2023-05-10T13:38:50;5.20;;;2.00;;
75340;SDS011;64931;47.562;18.920;2023-05-10T13:41:15;10.20;;;2.40;;
75340;SDS011;64931;47.562;18.920;2023-05-10T13:43:40;4.80;;;2.00;;
75340;SDS011;64931;47.562;18.920;2023-05-10T13:46:06;4.30;;;1.80;;
75340;SDS011;64931;47.562;18.920;2023-05-10T13:48:31;4.20;;;1.70;;
75340;SDS011;64931;47.562;18.920;2023-05-10T13:50:56;3.50;;;1.70;;
75340;SDS011;64931;47.562;18.920;2023-05-10T13:53:22;3.30;;;1.60;;
75340;SDS011;64931;47.562;18.920;2023-05-10T13:55:47;4.10;;;1.70;;
75340;SDS011;64931;47.562;18.920;2023-05-10T13:58:13;4.00;;;1.50;;
75340;SDS011;64931;47.562;18.920;2023-05-10T14:00:38;3.50;;;1.80;;
75340;SDS011;64931;47.562;18.920;2023-05-10T14:03:03;3.60;;;1.60;;
75340;SDS011;64931;47.562;18.920;2023-05-10T14:05:30;6.20;;;2.10;;
75340;SDS011;64931;47.562;18.920;2023-05-10T14:07:55;2.80;;;1.70;;
75340;SDS011;64931;47.562;18.920;2023-05-10T14:10:21;5.40;;;1.70;;
75340;SDS011;64931;47.562;18.920;2023-05-10T14:12:46;2.80;;;1.60;;
75340;SDS011;64931;47.562;18.920;2023-05-10T14:15:12;4.30;;;1.60;;
75340;SDS011;64931;47.562;18.920;2023-05-10T14:17:37;3.60;;;1.50;;
75340;SDS011;64931;47.562;18.920;2023-05-10T14:20:02;2.70;;;1.70;;
75340;SDS011;64931;47.562;18.920;2023-05-10T14:22:29;3.10;;;1.50;;
75340;SDS011;64931;47.562;18.920;2023-05-10T14:24:54;3.90;;;1.70;;
75340;SDS011;64931;47.562;18.920;2023-05-10T14:27:20;4.00;;;1.60;;
75340;SDS011;64931;47.562;18.920;2023-05-10T14:29:46;8.40;;;1.80;;
75340;SDS011;64931;47.562;18.920;2023-05-10T14:32:12;4.00;;;1.50;;
75340;SDS011;64931;47.562;18.920;2023-05-10T14:34:37;3.00;;;1.60;;
75340;SDS011;64931;47.562;18.920;2023-05-10T14:37:03;5.50;;;1.60;;
75340;SDS011;64931;47.562;18.920;2023-05-10T14:39:29;3.80;;;1.60;;
75340;SDS011;64931;47.562;18.920;2023-05-10T14:41:55;2.80;;;1.50;;
75340;SDS011;64931;47.562;18.920;2023-05-10T14:44:20;3.60;;;1.80;;
75340;SDS011;64931;47.562;18.920;2023-05-10T14:46:46;3.50;;;1.40;;
75340;SDS011;64931;47.562;18.920;2023-05-10T14:49:12;4.40;;;1.50;;
75340;SDS011;64931;47.562;18.920;2023-05-10T14:51:37;3.50;;;1.60;;
75340;SDS011;64931;47.562;18.920;2023-05-10T14:54:03;3.70;;;1.70;;
75340;SDS011;64931;47.562;18.920;2023-05-10T14:56:28;5.90;;;1.70;;
75340;SDS011;64931;47.562;18.920;2023-05-10T14:58:53;3.10;;;1.40;;
75340;SDS011;64931;47.562;18.920;2023-05-10T15:01:19;3.90;;;1.30;;
75340;SDS011;64931;47.562;18.920;2023-05-10T15:03:44;2.70;;;1.50;;
75340;SDS011;64931;47.562;18.920;2023-05-10T15:06:10;3.60;;;1.60;;
75340;SDS011;64931;47.562;18.920;2023-05-10T15:08:35;4.40;;;1.30;;
75340;SDS011;64931;47.562;18.920;2023-05-10T15:11:01;4.20;;;1.50;;
75340;SDS011;64931;47.562;18.920;2023-05-10T15:13:26;2.50;;;1.20;;
75340;SDS011;64931;47.562;18.920;2023-05-10T15:15:51;3.30;;;1.40;;